Time;durP1;ratioP1;P1;durP2;ratioP2;P2;SDS_P1;SDS_P2;PMS_P1;PMS_P2;Temp;Humidity;BMP_temperature;BMP_pressure;BME280_temperature;BME280_humidity;BME280_pressure;Samples;Min_cycle;Max_cycle;Signal;HPM_P1;HPM_P2
2021/09/22 00:02:07;;;;;;;19.50;13.98;;;;;;;;;;4994750;28;20081;-72
2021/09/22 00:04:34;;;;;;;15.27;11.60;;;;;;;;;;4994732;28;20057;-70
2021/09/22 00:07:01;;;;;;;18.33;12.52;;;;;;;;;;4961430;28;20096;-70
2021/09/22 00:09:28;;;;;;;15.30;12.65;;;;;;;;;;4977439;28;20410;-70
2021/09/22 00:11:55;;;;;;;16.80;11.93;;;;;;;;;;4977265;28;20058;-70
2021/09/22 00:14:22;;;;;;;15.77;11.50;;;;;;;;;;4977447;28;20054;-70
2021/09/22 00:16:48;;;;;;;15.05;11.90;;;;;;;;;;4994411;28;20469;-70
2021/09/22 00:19:15;;;;;;;16.08;12.13;;;;;;;;;;4994427;28;20085;-70
2021/09/22 00:21:41;;;;;;;17.10;12.30;;;;;;;;;;4994395;28;20468;-70
2021/09/22 00:24:08;;;;;;;16.25;12.18;;;;;;;;;;4994382;28;20057;-70
2021/09/22 00:26:35;;;;;;;18.45;12.98;;;;;;;;;;4994131;28;20108;-70
2021/09/22 00:29:01;;;;;;;17.20;13.00;;;;;;;;;;4994088;28;20057;-70
2021/09/22 00:31:28;;;;;;;16.40;12.88;;;;;;;;;;4977277;28;20051;-70
2021/09/22 00:33:55;;;;;;;16.73;12.13;;;;;;;;;;4976942;28;20058;-71
2021/09/22 00:36:22;;;;;;;16.63;12.70;;;;;;;;;;4977144;28;20051;-70
2021/09/22 00:38:48;;;;;;;18.20;12.57;;;;;;;;;;4993871;28;20054;-70
2021/09/22 00:41:15;;;;;;;16.52;12.35;;;;;;;;;;4993986;28;20046;-70
2021/09/22 00:43:41;;;;;;;16.42;12.13;;;;;;;;;;4976739;28;20054;-70
2021/09/22 00:46:08;;;;;;;16.73;11.65;;;;;;;;;;4993843;28;20077;-70
2021/09/22 00:48:35;;;;;;;18.58;12.95;;;;;;;;;;4994098;28;20104;-70
2021/09/22 00:51:04;;;;;;;16.50;12.60;;;;;;;;;;4960259;28;20053;-70
2021/09/22 00:53:30;;;;;;;15.77;12.48;;;;;;;;;;4976906;28;20469;-70
2021/09/22 00:55:57;;;;;;;17.77;12.98;;;;;;;;;;4993720;28;20073;-70
2021/09/22 00:58:26;;;;;;;16.42;12.80;;;;;;;;;;4960530;28;20676;-70
2021/09/22 01:00:53;;;;;;;17.73;12.10;;;;;;;;;;4960296;28;20050;-70
2021/09/22 01:03:20;;;;;;;16.42;12.25;;;;;;;;;;4976605;28;20065;-70
2021/09/22 01:05:49;;;;;;;17.30;12.55;;;;;;;;;;4993481;28;20131;-70
2021/09/22 01:08:16;;;;;;;16.75;12.55;;;;;;;;;;4976503;28;20493;-70
2021/09/22 01:10:47;;;;;;;17.48;12.02;;;;;;;;;;4975900;28;20101;-70
2021/09/22 01:13:14;;;;;;;15.05;12.25;;;;;;;;;;4976351;28;20054;-70
2021/09/22 01:15:43;;;;;;;17.33;12.02;;;;;;;;;;4976254;28;20050;-71
2021/09/22 01:18:15;;;;;;;17.85;12.23;;;;;;;;;;4960908;28;20085;-70
2021/09/22 01:20:43;;;;;;;20.98;14.32;;;;;;;;;;4961097;28;20112;-70
2021/09/22 01:23:10;;;;;;;15.77;12.43;;;;;;;;;;4976037;28;20081;-72
2021/09/22 01:25:41;;;;;;;14.93;11.43;;;;;;;;;;4993090;28;20097;-71
2021/09/22 01:28:08;;;;;;;15.95;12.65;;;;;;;;;;4960485;28;20148;-70
2021/09/22 01:30:35;;;;;;;15.38;11.40;;;;;;;;;;4992969;28;20054;-71
2021/09/22 01:33:08;;;;;;;16.80;13.35;;;;;;;;;;4959907;28;20090;-70
2021/09/22 01:35:36;;;;;;;16.75;11.93;;;;;;;;;;4976198;28;20252;-70
2021/09/22 01:38:10;;;;;;;19.13;12.23;;;;;;;;;;4992889;28;20473;-70
2021/09/22 01:40:37;;;;;;;15.27;11.93;;;;;;;;;;4976547;28;20105;-71
2021/09/22 01:43:05;;;;;;;15.85;12.05;;;;;;;;;;4975834;28;20107;-71
2021/09/22 01:45:32;;;;;;;15.77;11.50;;;;;;;;;;4959887;28;20093;-70
2021/09/22 01:47:59;;;;;;;15.90;11.68;;;;;;;;;;4975562;28;20105;-71
2021/09/22 01:50:26;;;;;;;15.80;11.35;;;;;;;;;;4975421;28;20054;-71
2021/09/22 01:52:53;;;;;;;15.23;11.88;;;;;;;;;;4975374;28;20050;-70
2021/09/22 01:55:22;;;;;;;16.90;12.48;;;;;;;;;;4975559;28;20460;-70
2021/09/22 01:57:49;;;;;;;16.15;12.35;;;;;;;;;;4992410;28;20501;-70
2021/09/22 02:00:20;;;;;;;18.27;12.23;;;;;;;;;;4975839;28;20498;-70
2021/09/22 02:02:47;;;;;;;15.55;11.85;;;;;;;;;;4974745;28;20108;-70
2021/09/22 02:05:14;;;;;;;16.90;12.10;;;;;;;;;;4992744;28;20050;-70
2021/09/22 02:07:40;;;;;;;15.18;11.90;;;;;;;;;;4992451;28;20046;-70
2021/09/22 02:10:07;;;;;;;15.15;11.32;;;;;;;;;;4992317;28;20421;-70
2021/09/22 02:12:34;;;;;;;14.85;12.00;;;;;;;;;;4975409;28;20054;-70
2021/09/22 02:15:01;;;;;;;16.77;12.40;;;;;;;;;;4992329;28;20050;-71
2021/09/22 02:17:27;;;;;;;15.57;12.40;;;;;;;;;;4975297;28;20465;-71
2021/09/22 02:19:54;;;;;;;13.63;11.27;;;;;;;;;;4992176;28;20054;-70
2021/09/22 02:22:20;;;;;;;16.55;12.77;;;;;;;;;;4975165;28;20108;-70
2021/09/22 02:24:47;;;;;;;17.48;11.57;;;;;;;;;;4992232;28;20049;-70
2021/09/22 02:27:15;;;;;;;18.67;12.30;;;;;;;;;;4975222;28;20492;-72
2021/09/22 02:29:42;;;;;;;14.73;10.95;;;;;;;;;;4974910;28;20046;-70
2021/09/22 02:32:09;;;;;;;15.52;12.07;;;;;;;;;;4974988;28;20050;-70
2021/09/22 02:34:36;;;;;;;14.40;11.60;;;;;;;;;;4975041;28;20054;-72
2021/09/22 02:37:03;;;;;;;16.77;11.55;;;;;;;;;;4974764;28;20461;-70
2021/09/22 02:39:30;;;;;;;15.77;11.75;;;;;;;;;;4974904;28;20132;-71
2021/09/22 02:41:57;;;;;;;16.13;11.63;;;;;;;;;;4959007;28;20050;-70
2021/09/22 02:44:24;;;;;;;16.17;11.45;;;;;;;;;;4975165;28;20054;-70
2021/09/22 02:46:51;;;;;;;16.42;12.18;;;;;;;;;;4958682;28;20497;-71
2021/09/22 02:49:18;;;;;;;15.30;11.85;;;;;;;;;;4974781;28;20054;-71
2021/09/22 02:51:45;;;;;;;14.40;11.05;;;;;;;;;;4974686;28;20607;-70
2021/09/22 02:54:12;;;;;;;14.18;11.38;;;;;;;;;;4959216;28;20128;-70
2021/09/22 02:56:38;;;;;;;14.57;11.35;;;;;;;;;;4974940;28;20077;-70
2021/09/22 02:59:05;;;;;;;16.48;11.65;;;;;;;;;;4992113;28;20264;-70
2021/09/22 03:01:32;;;;;;;16.10;12.27;;;;;;;;;;4974853;28;20054;-70
2021/09/22 03:04:00;;;;;;;14.57;11.30;;;;;;;;;;4991944;28;20085;-71
2021/09/22 03:06:27;;;;;;;16.23;11.43;;;;;;;;;;4974788;28;20476;-71
2021/09/22 03:08:54;;;;;;;15.90;12.23;;;;;;;;;;4991780;28;20046;-71
2021/09/22 03:11:21;;;;;;;16.48;12.27;;;;;;;;;;4992047;28;20050;-71
2021/09/22 03:13:47;;;;;;;15.48;11.75;;;;;;;;;;4975846;28;20105;-70
2021/09/22 03:16:14;;;;;;;14.95;11.52;;;;;;;;;;4995683;28;20054;-70
2021/09/22 03:18:40;;;;;;;14.63;11.43;;;;;;;;;;4995395;28;20054;-70
2021/09/22 03:21:07;;;;;;;15.43;11.88;;;;;;;;;;4995509;28;20058;-71
2021/09/22 03:23:34;;;;;;;17.55;13.07;;;;;;;;;;4995543;28;20046;-70
2021/09/22 03:26:00;;;;;;;17.33;12.43;;;;;;;;;;4995543;28;20493;-70
2021/09/22 03:28:27;;;;;;;21.17;14.60;;;;;;;;;;4995381;28;20054;-72
2021/09/22 03:30:53;;;;;;;18.63;13.88;;;;;;;;;;4977921;28;20050;-70
2021/09/22 03:33:20;;;;;;;16.80;12.68;;;;;;;;;;4995445;28;20137;-71
2021/09/22 03:35:47;;;;;;;17.80;12.65;;;;;;;;;;4995210;28;20525;-70
2021/09/22 03:38:13;;;;;;;17.88;13.00;;;;;;;;;;4995190;28;20457;-71
2021/09/22 03:40:41;;;;;;;20.05;13.70;;;;;;;;;;4994876;28;20498;-70
2021/09/22 03:43:08;;;;;;;18.05;13.75;;;;;;;;;;4977906;28;20646;-71
2021/09/22 03:45:35;;;;;;;17.35;13.55;;;;;;;;;;4977929;28;20096;-70
2021/09/22 03:48:02;;;;;;;17.17;12.32;;;;;;;;;;4961766;28;20066;-74
2021/09/22 03:50:29;;;;;;;17.58;13.60;;;;;;;;;;4995077;28;20058;-72
2021/09/22 03:52:55;;;;;;;16.23;12.32;;;;;;;;;;4994950;28;20108;-70
2021/09/22 03:55:22;;;;;;;14.95;11.60;;;;;;;;;;4995031;28;20046;-71
2021/09/22 03:57:48;;;;;;;16.10;11.43;;;;;;;;;;4977403;28;20186;-70
2021/09/22 04:00:15;;;;;;;17.63;11.65;;;;;;;;;;4994621;28;20057;-70
2021/09/22 04:02:42;;;;;;;15.45;11.90;;;;;;;;;;4994741;28;20050;-71
2021/09/22 04:05:09;;;;;;;15.10;11.63;;;;;;;;;;4994695;28;20344;-70
2021/09/22 04:07:36;;;;;;;15.88;11.70;;;;;;;;;;4961543;28;20054;-71
2021/09/22 04:10:03;;;;;;;15.27;11.38;;;;;;;;;;4994551;28;20046;-71
2021/09/22 04:12:30;;;;;;;15.48;12.07;;;;;;;;;;4977545;28;20150;-71
2021/09/22 04:14:57;;;;;;;18.25;13.05;;;;;;;;;;4994461;28;20054;-71
2021/09/22 04:17:23;;;;;;;17.08;13.20;;;;;;;;;;4994601;28;20054;-71
2021/09/22 04:19:50;;;;;;;16.30;12.52;;;;;;;;;;4994201;28;20058;-71
2021/09/22 04:22:16;;;;;;;16.90;11.75;;;;;;;;;;4994374;28;20089;-71
2021/09/22 04:24:43;;;;;;;15.70;12.40;;;;;;;;;;4976812;28;20050;-71
2021/09/22 04:27:10;;;;;;;16.17;12.27;;;;;;;;;;4976429;28;20050;-71
2021/09/22 04:29:36;;;;;;;16.77;12.05;;;;;;;;;;4977000;28;20469;-71
2021/09/22 04:32:04;;;;;;;14.45;11.75;;;;;;;;;;4994085;28;20054;-70
2021/09/22 04:34:31;;;;;;;16.40;11.98;;;;;;;;;;4977050;28;20501;-71
2021/09/22 04:36:57;;;;;;;16.63;12.43;;;;;;;;;;4993996;28;20046;-71
2021/09/22 04:39:24;;;;;;;15.85;11.45;;;;;;;;;;4993991;28;20497;-71
2021/09/22 04:41:50;;;;;;;13.13;10.98;;;;;;;;;;4993869;28;20666;-71
2021/09/22 04:44:17;;;;;;;16.80;11.98;;;;;;;;;;4976896;28;20104;-72
2021/09/22 04:46:44;;;;;;;16.38;12.43;;;;;;;;;;4994013;28;20112;-72
2021/09/22 04:49:10;;;;;;;18.55;12.88;;;;;;;;;;4993845;28;20050;-71
2021/09/22 04:51:37;;;;;;;15.50;12.18;;;;;;;;;;4976566;28;20429;-71
2021/09/22 04:54:03;;;;;;;18.40;13.15;;;;;;;;;;4993745;28;20058;-72
2021/09/22 04:56:30;;;;;;;17.55;13.45;;;;;;;;;;4993828;28;20051;-71
2021/09/22 04:58:57;;;;;;;17.88;12.32;;;;;;;;;;4998861;23;20129;-64
2021/09/22 05:01:23;;;;;;;18.65;11.85;;;;;;;;;;4993813;28;20198;-63
2021/09/22 05:03:51;;;;;;;17.20;11.63;;;;;;;;;;4993566;28;20693;-63
2021/09/22 05:06:17;;;;;;;16.50;11.43;;;;;;;;;;4993473;28;20052;-63
2021/09/22 05:08:44;;;;;;;18.80;12.05;;;;;;;;;;4993313;28;20077;-63
2021/09/22 05:11:10;;;;;;;15.35;11.93;;;;;;;;;;4993462;28;20058;-63
2021/09/22 05:13:37;;;;;;;19.27;12.63;;;;;;;;;;4993536;28;20054;-64
2021/09/22 05:16:04;;;;;;;16.77;11.68;;;;;;;;;;4993289;28;20050;-63
2021/09/22 05:18:31;;;;;;;21.95;11.88;;;;;;;;;;4993378;28;20049;-63
2021/09/22 05:20:57;;;;;;;22.45;13.40;;;;;;;;;;4993058;28;20091;-62
2021/09/22 05:23:24;;;;;;;22.75;13.00;;;;;;;;;;4993320;28;20054;-63
2021/09/22 05:25:51;;;;;;;20.52;12.93;;;;;;;;;;4993099;28;20053;-63
2021/09/22 05:28:17;;;;;;;24.42;12.18;;;;;;;;;;4993257;28;20054;-64
2021/09/22 05:30:44;;;;;;;19.92;12.63;;;;;;;;;;4992933;28;20050;-63
2021/09/22 05:33:10;;;;;;;21.27;13.40;;;;;;;;;;4993115;28;20062;-63
2021/09/22 05:35:46;;;;;;;17.50;13.35;;;;;;;;;;4993044;28;20054;-63
2021/09/22 05:38:13;;;;;;;20.15;12.65;;;;;;;;;;4991981;28;20465;-63
2021/09/22 05:40:40;;;;;;;17.73;12.90;;;;;;;;;;4992848;28;20468;-64
2021/09/22 05:43:06;;;;;;;15.95;11.93;;;;;;;;;;4992783;28;20109;-63
2021/09/22 05:45:33;;;;;;;17.30;12.43;;;;;;;;;;4992996;28;20050;-63
2021/09/22 05:47:59;;;;;;;19.27;12.60;;;;;;;;;;4992593;28;20492;-63
2021/09/22 05:50:26;;;;;;;18.30;11.93;;;;;;;;;;4975425;28;20093;-63
2021/09/22 05:52:53;;;;;;;17.42;12.48;;;;;;;;;;4992705;28;20101;-63
2021/09/22 05:55:19;;;;;;;19.30;12.65;;;;;;;;;;4993105;28;20428;-63
2021/09/22 05:57:46;;;;;;;16.00;11.63;;;;;;;;;;4975190;28;20046;-63
2021/09/22 06:00:13;;;;;;;19.48;13.43;;;;;;;;;;4992348;28;20058;-63
2021/09/22 06:02:40;;;;;;;18.02;12.60;;;;;;;;;;4992638;28;20054;-64
2021/09/22 06:05:07;;;;;;;22.95;13.93;;;;;;;;;;4992520;28;20457;-63
2021/09/22 06:07:34;;;;;;;22.13;13.98;;;;;;;;;;4992509;28;20046;-64
2021/09/22 06:10:00;;;;;;;19.13;13.13;;;;;;;;;;4992338;28;20562;-63
2021/09/22 06:12:27;;;;;;;22.23;14.02;;;;;;;;;;4992434;28;20497;-63
2021/09/22 06:14:54;;;;;;;18.38;13.25;;;;;;;;;;4992628;28;20100;-64
2021/09/22 06:17:20;;;;;;;20.75;14.50;;;;;;;;;;4992478;28;20117;-63
2021/09/22 06:19:47;;;;;;;21.83;14.25;;;;;;;;;;4992179;28;20046;-63
2021/09/22 06:22:13;;;;;;;20.63;13.27;;;;;;;;;;4992380;28;20109;-63
2021/09/22 06:24:40;;;;;;;20.55;13.60;;;;;;;;;;4992424;28;20457;-63
2021/09/22 06:27:07;;;;;;;23.77;14.65;;;;;;;;;;4992268;28;20050;-63
2021/09/22 06:29:33;;;;;;;21.98;14.85;;;;;;;;;;4992271;28;20078;-63
2021/09/22 06:32:00;;;;;;;21.83;14.23;;;;;;;;;;4992190;28;20501;-63
2021/09/22 06:34:27;;;;;;;19.77;14.88;;;;;;;;;;4992252;28;20054;-64
2021/09/22 06:36:53;;;;;;;21.70;14.52;;;;;;;;;;4992250;28;20046;-63
2021/09/22 06:39:20;;;;;;;19.98;14.07;;;;;;;;;;4992105;28;20046;-63
2021/09/22 06:41:46;;;;;;;21.50;14.23;;;;;;;;;;4974854;28;20112;-63
2021/09/22 06:44:13;;;;;;;21.10;13.80;;;;;;;;;;4992209;28;20497;-63
2021/09/22 06:46:40;;;;;;;20.10;14.13;;;;;;;;;;4992137;28;20046;-63
2021/09/22 06:49:06;;;;;;;25.17;14.85;;;;;;;;;;4993701;28;20088;-63
2021/09/22 06:51:33;;;;;;;19.67;14.13;;;;;;;;;;4996026;28;20065;-64
2021/09/22 06:53:59;;;;;;;18.23;13.10;;;;;;;;;;4996071;28;20136;-64
2021/09/22 06:56:26;;;;;;;18.00;13.77;;;;;;;;;;4996060;28;20456;-63
2021/09/22 06:58:53;;;;;;;20.15;14.20;;;;;;;;;;4995570;28;20571;-63
2021/09/22 07:01:19;;;;;;;18.77;13.48;;;;;;;;;;4995971;28;20061;-64
2021/09/22 07:03:46;;;;;;;18.45;13.45;;;;;;;;;;4995910;28;20058;-63
2021/09/22 07:06:13;;;;;;;18.58;13.98;;;;;;;;;;4995839;28;20100;-63
2021/09/22 07:08:40;;;;;;;20.08;14.10;;;;;;;;;;4995632;28;20394;-63
2021/09/22 07:11:07;;;;;;;17.25;13.18;;;;;;;;;;4995878;28;20061;-64
2021/09/22 07:13:36;;;;;;;17.38;14.27;;;;;;;;;;4995730;28;20054;-63
2021/09/22 07:16:04;;;;;;;17.08;13.40;;;;;;;;;;4995516;28;20061;-63
2021/09/22 07:18:30;;;;;;;17.52;13.60;;;;;;;;;;4995650;28;20085;-63
2021/09/22 07:20:58;;;;;;;16.33;13.88;;;;;;;;;;4995323;28;20567;-63
2021/09/22 07:23:25;;;;;;;20.40;14.20;;;;;;;;;;4995641;28;20050;-63
2021/09/22 07:25:52;;;;;;;20.15;13.38;;;;;;;;;;4995432;28;20050;-63
2021/09/22 07:28:18;;;;;;;15.15;13.32;;;;;;;;;;4995365;28;20721;-63
2021/09/22 07:30:46;;;;;;;15.73;12.77;;;;;;;;;;4995427;28;20054;-63
2021/09/22 07:33:13;;;;;;;20.35;14.07;;;;;;;;;;4995551;28;20092;-63
2021/09/22 07:35:40;;;;;;;15.43;12.30;;;;;;;;;;4995389;28;20406;-64
2021/09/22 07:38:06;;;;;;;16.52;12.45;;;;;;;;;;4995309;28;20058;-64
2021/09/22 07:40:33;;;;;;;16.90;13.90;;;;;;;;;;4995057;28;20120;-63
2021/09/22 07:43:00;;;;;;;20.42;14.18;;;;;;;;;;4995187;28;20121;-63
2021/09/22 07:45:26;;;;;;;20.02;14.68;;;;;;;;;;4995168;28;20457;-63
2021/09/22 07:47:53;;;;;;;21.30;14.45;;;;;;;;;;4994787;28;20046;-63
2021/09/22 07:50:19;;;;;;;21.08;14.55;;;;;;;;;;4994938;28;20054;-63
2021/09/22 07:52:46;;;;;;;19.30;13.65;;;;;;;;;;4994959;28;20050;-64
2021/09/22 07:55:13;;;;;;;21.70;14.88;;;;;;;;;;4994925;28;20054;-64
2021/09/22 07:57:39;;;;;;;17.17;13.43;;;;;;;;;;4994726;28;20489;-63
2021/09/22 08:00:08;;;;;;;15.20;13.52;;;;;;;;;;4993489;28;20100;-63
2021/09/22 08:02:34;;;;;;;20.60;15.00;;;;;;;;;;4994842;28;20091;-63
2021/09/22 08:05:02;;;;;;;18.88;14.25;;;;;;;;;;4994701;28;20058;-62
2021/09/22 08:07:42;;;;;;;19.42;15.18;;;;;;;;;;4994477;28;20058;-63
2021/09/22 08:10:09;;;;;;;16.83;12.98;;;;;;;;;;4994555;28;20077;-63
2021/09/22 08:12:35;;;;;;;18.48;14.23;;;;;;;;;;4994604;28;20054;-63
2021/09/22 08:15:03;;;;;;;16.92;13.40;;;;;;;;;;4994400;28;20058;-63
2021/09/22 08:17:29;;;;;;;17.30;13.02;;;;;;;;;;4994573;28;20055;-64
2021/09/22 08:19:56;;;;;;;18.42;12.95;;;;;;;;;;4994144;28;20097;-63
2021/09/22 08:22:22;;;;;;;16.58;12.93;;;;;;;;;;4994561;28;20058;-64
2021/09/22 08:24:50;;;;;;;18.52;12.88;;;;;;;;;;4994389;28;20103;-63
2021/09/22 08:27:16;;;;;;;18.40;13.20;;;;;;;;;;4994343;28;20046;-63
2021/09/22 08:29:43;;;;;;;16.20;12.50;;;;;;;;;;4994010;28;20096;-63
2021/09/22 08:32:10;;;;;;;14.57;11.90;;;;;;;;;;4994207;28;20497;-63
2021/09/22 08:34:36;;;;;;;15.15;12.85;;;;;;;;;;4994269;28;20496;-64
2021/09/22 08:37:03;;;;;;;16.30;12.07;;;;;;;;;;4994028;28;20501;-63
2021/09/22 08:39:32;;;;;;;15.85;12.57;;;;;;;;;;4993939;28;20050;-63
2021/09/22 08:42:01;;;;;;;15.48;12.38;;;;;;;;;;4994001;28;20058;-64
2021/09/22 08:44:28;;;;;;;14.02;11.18;;;;;;;;;;4993952;28;20050;-64
2021/09/22 08:46:55;;;;;;;15.73;12.63;;;;;;;;;;4993860;28;20105;-63
2021/09/22 08:49:21;;;;;;;16.05;12.10;;;;;;;;;;4993726;28;20109;-64
2021/09/22 08:51:48;;;;;;;15.55;11.50;;;;;;;;;;4993825;28;20472;-64
2021/09/22 08:54:15;;;;;;;15.60;11.35;;;;;;;;;;4994027;28;20046;-63
2021/09/22 08:56:43;;;;;;;13.10;11.65;;;;;;;;;;4993768;28;20105;-63
2021/09/22 08:59:10;;;;;;;14.30;11.57;;;;;;;;;;4993465;28;20104;-64
2021/09/22 09:01:37;;;;;;;14.57;11.85;;;;;;;;;;4993722;28;20130;-64
2021/09/22 09:04:17;;;;;;;12.98;10.55;;;;;;;;;;4993650;28;20047;-63
2021/09/22 09:06:54;;;;;;;13.32;10.23;;;;;;;;;;4976968;28;20085;-63
2021/09/22 09:09:29;;;;;;;13.05;10.15;;;;;;;;;;4993477;28;20046;-63
2021/09/22 09:11:56;;;;;;;12.60;10.60;;;;;;;;;;4977358;28;20058;-64
2021/09/22 09:14:23;;;;;;;13.25;10.45;;;;;;;;;;4993383;28;20112;-63
2021/09/22 09:16:50;;;;;;;11.43;9.40;;;;;;;;;;4993383;28;20054;-64
2021/09/22 09:19:21;;;;;;;15.40;11.43;;;;;;;;;;4993218;28;20488;-64
2021/09/22 09:21:54;;;;;;;10.68;9.48;;;;;;;;;;4993193;28;20575;-64
2021/09/22 09:24:30;;;;;;;11.70;9.45;;;;;;;;;;4993315;28;20468;-64
2021/09/22 09:26:56;;;;;;;14.00;9.38;;;;;;;;;;4993017;28;20050;-65
2021/09/22 09:29:27;;;;;;;11.52;9.52;;;;;;;;;;4993010;28;20077;-65
2021/09/22 09:32:29;;;;;;;10.90;9.63;;;;;;;;;;4992984;28;20062;-64
2021/09/22 09:35:10;;;;;;;12.10;10.13;;;;;;;;;;4932811;29;20117;-64
2021/09/22 09:37:42;;;;;;;11.82;9.40;;;;;;;;;;4987118;28;20100;-64
2021/09/22 09:40:26;;;;;;;11.95;9.43;;;;;;;;;;4975644;28;20057;-64
2021/09/22 09:43:04;;;;;;;9.95;8.90;;;;;;;;;;4992824;28;20050;-64
2021/09/22 09:45:33;;;;;;;10.75;9.30;;;;;;;;;;4992915;28;20053;-64
2021/09/22 09:48:06;;;;;;;9.88;8.52;;;;;;;;;;4992569;28;20552;-65
2021/09/22 09:50:43;;;;;;;10.57;8.23;;;;;;;;;;4992649;28;20056;-64
2021/09/22 09:53:21;;;;;;;12.32;8.65;;;;;;;;;;4992739;28;20399;-63
2021/09/22 09:55:47;;;;;;;9.65;8.65;;;;;;;;;;4992729;28;20105;-64
2021/09/22 09:58:15;;;;;;;10.65;7.28;;;;;;;;;;4992385;28;20065;-63
2021/09/22 10:00:41;;;;;;;8.65;7.63;;;;;;;;;;4992479;28;20189;-64
2021/09/22 10:03:26;;;;;;;10.05;7.28;;;;;;;;;;4992549;28;20065;-64
2021/09/22 10:05:53;;;;;;;7.70;6.32;;;;;;;;;;4992541;28;20064;-64
2021/09/22 10:08:21;;;;;;;7.90;5.90;;;;;;;;;;4992503;28;20057;-64
2021/09/22 10:10:50;;;;;;;6.15;5.55;;;;;;;;;;4992263;28;20054;-64
2021/09/22 10:13:17;;;;;;;8.38;5.85;;;;;;;;;;4992482;28;20050;-63
2021/09/22 10:15:45;;;;;;;8.70;5.47;;;;;;;;;;4992321;28;20120;-64
2021/09/22 10:18:12;;;;;;;6.90;6.18;;;;;;;;;;4975352;28;20476;-64
2021/09/22 10:20:43;;;;;;;18.15;7.68;;;;;;;;;;4992351;28;20104;-64
2021/09/22 10:23:16;;;;;;;8.07;7.05;;;;;;;;;;4991896;28;20058;-65
2021/09/22 10:25:45;;;;;;;8.82;5.97;;;;;;;;;;4975082;28;20563;-64
2021/09/22 10:28:13;;;;;;;9.13;5.97;;;;;;;;;;4975110;28;20097;-64
2021/09/22 10:30:41;;;;;;;7.38;5.93;;;;;;;;;;4975022;28;20046;-64
2021/09/22 10:33:28;;;;;;;7.70;6.18;;;;;;;;;;4992346;28;20089;-65
2021/09/22 10:35:56;;;;;;;7.03;5.55;;;;;;;;;;4976518;28;20694;-64
2021/09/22 10:38:28;;;;;;;5.32;4.80;;;;;;;;;;4992289;28;20054;-64
2021/09/22 10:40:59;;;;;;;8.02;4.95;;;;;;;;;;4991925;28;20523;-64
2021/09/22 10:43:31;;;;;;;8.57;5.15;;;;;;;;;;4992242;28;20104;-64
2021/09/22 10:46:07;;;;;;;7.38;5.45;;;;;;;;;;4974914;28;20073;-63
2021/09/22 10:48:56;;;;;;;6.80;5.50;;;;;;;;;;4992065;28;20501;-64
2021/09/22 10:51:34;;;;;;;5.53;4.95;;;;;;;;;;4985521;28;20058;-63
2021/09/22 10:54:08;;;;;;;5.88;4.90;;;;;;;;;;4992109;28;20054;-64
2021/09/22 10:56:46;;;;;;;6.22;4.80;;;;;;;;;;4992176;28;20105;-64
2021/09/22 10:59:32;;;;;;;5.40;4.90;;;;;;;;;;4976881;28;20185;-63
2021/09/22 11:02:00;;;;;;;6.90;5.03;;;;;;;;;;4991993;28;20050;-63
2021/09/22 11:04:27;;;;;;;5.15;4.45;;;;;;;;;;4992171;28;20120;-63
2021/09/22 11:06:54;;;;;;;5.88;4.38;;;;;;;;;;4974674;28;20133;-63
2021/09/22 11:09:21;;;;;;;5.47;4.15;;;;;;;;;;4991867;28;20050;-63
2021/09/22 11:11:58;;;;;;;4.60;4.20;;;;;;;;;;4991763;28;20101;-64
2021/09/22 11:14:43;;;;;;;4.65;3.72;;;;;;;;;;4992061;28;20401;-64
2021/09/22 11:17:27;;;;;;;3.92;3.45;;;;;;;;;;4991961;28;20057;-63
2021/09/22 11:19:56;;;;;;;3.85;3.55;;;;;;;;;;4991554;28;20055;-63
2021/09/22 11:22:26;;;;;;;4.60;4.18;;;;;;;;;;4991915;28;20054;-63
2021/09/22 11:24:57;;;;;;;4.68;3.88;;;;;;;;;;4991777;28;20560;-63
2021/09/22 11:27:24;;;;;;;4.38;3.53;;;;;;;;;;4991715;28;20046;-63
2021/09/22 11:29:53;;;;;;;5.30;4.32;;;;;;;;;;4991563;28;20054;-63
2021/09/22 11:32:38;;;;;;;5.00;3.90;;;;;;;;;;4991977;28;20046;-63
2021/09/22 11:35:06;;;;;;;5.57;3.67;;;;;;;;;;4993268;28;20509;-64
2021/09/22 11:37:39;;;;;;;4.45;3.90;;;;;;;;;;4995327;28;20046;-63
2021/09/22 11:40:13;;;;;;;5.28;4.03;;;;;;;;;;4995024;28;20109;-63
2021/09/22 11:43:00;;;;;;;3.45;2.80;;;;;;;;;;4995247;28;20124;-63
2021/09/22 11:46:02;;;;;;;3.60;3.30;;;;;;;;;;4995288;28;20058;-63
2021/09/22 11:48:34;;;;;;;4.50;3.70;;;;;;;;;;4993813;28;20051;-63
2021/09/22 11:51:04;;;;;;;3.60;2.90;;;;;;;;;;4994864;28;20091;-63
2021/09/22 11:53:32;;;;;;;2.97;2.53;;;;;;;;;;4995121;28;20065;-63
2021/09/22 11:56:00;;;;;;;2.75;2.45;;;;;;;;;;4994860;28;20050;-64
2021/09/22 11:58:31;;;;;;;2.83;2.40;;;;;;;;;;4994823;28;20128;-63
2021/09/22 12:01:00;;;;;;;5.28;2.30;;;;;;;;;;4994600;28;20050;-63
2021/09/22 12:03:29;;;;;;;2.55;2.10;;;;;;;;;;4994823;28;20571;-63
2021/09/22 12:06:11;;;;;;;4.47;2.05;;;;;;;;;;4994683;28;20141;-63
2021/09/22 12:08:39;;;;;;;4.43;2.08;;;;;;;;;;4994346;28;20055;-63
2021/09/22 12:11:06;;;;;;;4.95;2.22;;;;;;;;;;4994558;28;20050;-63
2021/09/22 12:13:46;;;;;;;2.28;1.92;;;;;;;;;;4994753;28;20054;-63
2021/09/22 12:16:16;;;;;;;3.38;2.30;;;;;;;;;;4994739;28;20058;-63
2021/09/22 12:18:53;;;;;;;3.13;2.30;;;;;;;;;;4977518;28;20092;-63
2021/09/22 12:21:28;;;;;;;4.13;2.70;;;;;;;;;;4977923;28;20046;-63
2021/09/22 12:24:03;;;;;;;2.45;2.03;;;;;;;;;;4994376;28;20077;-63
2021/09/22 12:26:30;;;;;;;3.97;2.38;;;;;;;;;;4994586;28;20116;-63
2021/09/22 12:29:23;;;;;;;2.38;2.17;;;;;;;;;;4994028;28;20096;-63
2021/09/22 12:31:52;;;;;;;3.72;2.30;;;;;;;;;;4991487;28;20051;-63
2021/09/22 12:34:23;;;;;;;3.17;2.17;;;;;;;;;;4994428;28;20093;-63
2021/09/22 12:36:52;;;;;;;2.97;2.20;;;;;;;;;;4994386;28;20054;-63
2021/09/22 12:39:20;;;;;;;3.55;2.20;;;;;;;;;;4994030;28;20097;-64
2021/09/22 12:42:04;;;;;;;7.90;2.30;;;;;;;;;;4994034;28;20053;-64
2021/09/22 12:44:50;;;;;;;3.63;2.42;;;;;;;;;;4994078;28;20050;-63
2021/09/22 12:47:17;;;;;;;3.72;2.13;;;;;;;;;;4993697;28;20108;-63
2021/09/22 12:50:02;;;;;;;5.43;2.30;;;;;;;;;;4993732;28;20053;-63
2021/09/22 12:52:28;;;;;;;2.17;1.80;;;;;;;;;;4979502;28;20101;-63
2021/09/22 12:54:55;;;;;;;4.30;2.10;;;;;;;;;;4993775;28;20054;-63
2021/09/22 12:57:22;;;;;;;2.63;2.40;;;;;;;;;;4993851;28;20520;-64
2021/09/22 12:59:48;;;;;;;2.42;2.17;;;;;;;;;;4993562;28;20081;-65
2021/09/22 13:42:37;;;;;;;3.08;1.40;;;;;;;;;;5664340;23;20058;-63
2021/09/22 13:45:05;;;;;;;3.30;1.50;;;;;;;;;;4985092;28;20557;-66
2021/09/22 13:47:32;;;;;;;3.22;1.58;;;;;;;;;;4976968;28;20054;-66
2021/09/22 13:49:58;;;;;;;3.75;1.52;;;;;;;;;;4976406;28;20042;-69
2021/09/22 13:52:29;;;;;;;4.90;1.77;;;;;;;;;;4973765;28;20092;-72
2021/09/22 13:54:59;;;;;;;2.05;1.73;;;;;;;;;;4994115;23;20093;-71
2021/09/22 13:57:27;;;;;;;2.63;1.60;;;;;;;;;;4977128;28;20530;-69
2021/09/22 13:59:54;;;;;;;3.17;2.00;;;;;;;;;;4970528;28;20121;-68
2021/09/22 14:02:25;;;;;;;3.05;1.48;;;;;;;;;;4976927;28;20046;-73
2021/09/22 14:04:55;;;;;;;3.42;1.60;;;;;;;;;;4975957;28;20059;-70
2021/09/22 14:07:23;;;;;;;2.35;1.30;;;;;;;;;;4976536;28;20062;-73
2021/09/22 14:09:53;;;;;;;2.38;1.15;;;;;;;;;;4978093;28;20424;-73
2021/09/22 14:12:36;;;;;;;1.55;1.40;;;;;;;;;;4971509;28;20058;-74
2021/09/22 14:15:13;;;;;;;1.20;1.05;;;;;;;;;;4973564;28;20054;-73
2021/09/22 14:17:40;;;;;;;2.95;1.70;;;;;;;;;;4974593;28;20105;-72
2021/09/22 14:20:07;;;;;;;6.85;1.40;;;;;;;;;;4978390;28;20050;-70
2021/09/22 14:22:33;;;;;;;2.63;1.40;;;;;;;;;;4977478;28;20052;-72
2021/09/22 14:25:00;;;;;;;4.28;1.50;;;;;;;;;;4980270;28;20054;-71
2021/09/22 14:27:28;;;;;;;5.55;1.77;;;;;;;;;;4980568;28;20076;-73
2021/09/22 14:29:54;;;;;;;2.55;1.40;;;;;;;;;;4993963;28;20061;-71
2021/09/22 14:32:21;;;;;;;2.88;1.30;;;;;;;;;;4971041;28;20043;-69
2021/09/22 14:34:48;;;;;;;2.80;1.63;;;;;;;;;;4970867;28;20421;-72
2021/09/22 14:37:15;;;;;;;1.80;1.30;;;;;;;;;;4976124;28;20057;-72
2021/09/22 14:39:42;;;;;;;1.90;1.33;;;;;;;;;;4981374;28;20470;-72
2021/09/22 14:42:10;;;;;;;3.03;1.25;;;;;;;;;;4970981;28;20057;-74
2021/09/22 14:44:37;;;;;;;4.00;2.03;;;;;;;;;;4976957;28;20073;-76
2021/09/22 14:47:08;;;;;;;2.92;1.52;;;;;;;;;;4972745;28;20082;-72
2021/09/22 14:49:35;;;;;;;3.10;1.60;;;;;;;;;;4971031;28;20050;-71
2021/09/22 14:52:02;;;;;;;2.83;1.70;;;;;;;;;;4996290;28;20055;-67
2021/09/22 14:54:29;;;;;;;2.92;1.52;;;;;;;;;;4978632;28;20051;-68
2021/09/22 14:56:56;;;;;;;4.85;1.63;;;;;;;;;;4972907;28;20402;-73
2021/09/22 14:59:23;;;;;;;4.15;1.60;;;;;;;;;;4977570;28;20497;-69
2021/09/22 15:01:50;;;;;;;2.75;1.60;;;;;;;;;;4977796;28;20113;-69
2021/09/22 15:04:17;;;;;;;4.90;1.48;;;;;;;;;;4971322;28;20051;-69
2021/09/22 15:06:44;;;;;;;2.65;1.50;;;;;;;;;;4970879;28;20113;-70
2021/09/22 15:09:11;;;;;;;4.30;1.98;;;;;;;;;;4991554;28;20050;-71
2021/09/22 15:11:38;;;;;;;4.53;1.80;;;;;;;;;;4995765;28;20536;-70
2021/09/22 15:14:05;;;;;;;5.32;1.92;;;;;;;;;;4974283;28;20430;-72
2021/09/22 15:16:32;;;;;;;5.88;2.50;;;;;;;;;;4974931;28;20134;-73